Saint Bonnet de Bellac- Haute Vienne - France
Donnes mto: dimanche, 05/02/2012
Date Horaire Temp. E. Hum. E. P.atmo. Pluie Vent Direction Direction Ensoleilleme Solaire P. de rose Temp au vent Rafales
05/02/2012 00:00 -10,9 C 79 % 1031,4 hPa 0,0 mm 0,0 km/h (0 Bft) E 90 0 min 0 W/m -13,8 C -10,9 C 0,0 km/h (0 Bft)
05/02/2012 00:10 -10,9 C 79 % 1031,4 hPa 0,0 mm 0,0 km/h (0 Bft) E-NE 67 0 min 0 W/m -13,8 C -10,9 C 0,0 km/h (0 Bft)
05/02/2012 00:20 -10,9 C 79 % 1031,3 hPa 0,0 mm 0,0 km/h (0 Bft) E 90 0 min 0 W/m -13,8 C -10,9 C 0,0 km/h (0 Bft)
05/02/2012 00:30 -10,9 C 79 % 1031,2 hPa 0,0 mm 0,0 km/h (0 Bft) E-SE 112 0 min 0 W/m -13,8 C -10,9 C 0,0 km/h (0 Bft)
05/02/2012 00:40 -10,9 C 79 % 1031,1 hPa 0,0 mm 0,0 km/h (0 Bft) E-SE 112 0 min 0 W/m -13,8 C -10,9 C 0,0 km/h (0 Bft)
05/02/2012 00:50 -10,9 C 80 % 1031,2 hPa 0,0 mm 0,0 km/h (0 Bft) O 270 0 min 0 W/m -13,7 C -10,9 C 0,0 km/h (0 Bft)
05/02/2012 01:00 -11,1 C 80 % 1031,3 hPa 0,0 mm 0,0 km/h (0 Bft) O 270 0 min 0 W/m -13,8 C -11,1 C 0,0 km/h (0 Bft)
05/02/2012 01:10 -11,1 C 81 % 1031,0 hPa 0,0 mm 0,0 km/h (0 Bft) O 270 0 min 0 W/m -13,7 C -11,1 C 0,0 km/h (0 Bft)
05/02/2012 01:20 -11,1 C 81 % 1030,8 hPa 0,0 mm 0,0 km/h (0 Bft) O 270 0 min 0 W/m -13,7 C -11,1 C 0,0 km/h (0 Bft)
05/02/2012 01:30 -11,0 C 82 % 1030,7 hPa 0,0 mm 0,0 km/h (0 Bft) O 270 0 min 0 W/m -13,5 C -11,0 C 0,0 km/h (0 Bft)
05/02/2012 01:40 -10,8 C 82 % 1030,5 hPa 0,0 mm 0,0 km/h (0 Bft) E 90 0 min 0 W/m -13,3 C -10,8 C 0,0 km/h (0 Bft)
05/02/2012 01:50 -10,8 C 82 % 1030,4 hPa 0,0 mm 0,0 km/h (0 Bft) E 90 0 min 0 W/m -13,3 C -10,8 C 0,0 km/h (0 Bft)
05/02/2012 02:02 -10,5 C 82 % 1030,1 hPa 0,0 mm 0,0 km/h (0 Bft) SE 135 0 min 0 W/m -13,0 C -10,5 C 0,0 km/h (0 Bft)
05/02/2012 02:10 -10,2 C 84 % 1030,0 hPa 0,0 mm 0,0 km/h (0 Bft) S-SO 202 0 min 0 W/m -12,4 C -10,2 C 0,0 km/h (0 Bft)
05/02/2012 02:20 -9,8 C 84 % 1029,9 hPa 0,0 mm 0,0 km/h (0 Bft) S 180 0 min 0 W/m -12,0 C -9,8 C 0,0 km/h (0 Bft)
05/02/2012 02:30 -9,6 C 84 % 1029,7 hPa 0,0 mm 0,0 km/h (0 Bft) S 180 0 min 0 W/m -11,8 C -9,6 C 0,0 km/h (0 Bft)
05/02/2012 02:40 -9,4 C 83 % 1029,6 hPa 0,0 mm 0,0 km/h (0 Bft) E-SE 112 0 min 0 W/m -11,7 C -9,4 C 0,0 km/h (0 Bft)
05/02/2012 02:50 -9,2 C 83 % 1029,5 hPa 0,0 mm 0,0 km/h (0 Bft) E-SE 112 0 min 0 W/m -11,5 C -9,2 C 0,0 km/h (0 Bft)
05/02/2012 03:00 -9,2 C 83 % 1029,2 hPa 0,0 mm 0,0 km/h (0 Bft) E-SE 112 0 min 0 W/m -11,5 C -9,2 C 0,0 km/h (0 Bft)
05/02/2012 03:10 -9,0 C 83 % 1028,9 hPa 0,0 mm 0,0 km/h (0 Bft) SE 135 0 min 0 W/m -11,3 C -9,0 C 0,0 km/h (0 Bft)
05/02/2012 03:20 -8,9 C 83 % 1028,7 hPa 0,0 mm 0,4 km/h (0 Bft) E 90 0 min 0 W/m -11,2 C -8,9 C 3,6 km/h (1 Bft)
05/02/2012 03:30 -8,9 C 82 % 1028,6 hPa 0,0 mm 0,0 km/h (0 Bft) E-SE 112 0 min 0 W/m -11,4 C -8,9 C 0,0 km/h (0 Bft)
05/02/2012 03:40 -8,9 C 83 % 1028,5 hPa 0,0 mm 0,0 km/h (0 Bft) E-SE 112 0 min 0 W/m -11,2 C -8,9 C 0,0 km/h (0 Bft)
05/02/2012 03:50 -8,7 C 83 % 1028,2 hPa 0,0 mm 0,0 km/h (0 Bft) E-SE 112 0 min 0 W/m -11,0 C -8,7 C 0,0 km/h (0 Bft)
05/02/2012 04:00 -8,5 C 83 % 1028,0 hPa 0,0 mm 0,0 km/h (0 Bft) E-SE 112 0 min 0 W/m -10,9 C -8,5 C 0,0 km/h (0 Bft)
05/02/2012 04:10 -8,2 C 83 % 1027,7 hPa 0,0 mm 0,0 km/h (0 Bft) E-SE 112 0 min 0 W/m -10,6 C -8,2 C 0,0 km/h (0 Bft)
05/02/2012 04:20 -8,1 C 83 % 1027,4 hPa 0,0 mm 0,0 km/h (0 Bft) SE 135 0 min 0 W/m -10,5 C -8,1 C 0,0 km/h (0 Bft)
05/02/2012 04:30 -7,8 C 83 % 1027,3 hPa 0,0 mm 0,0 km/h (0 Bft) S 180 0 min 0 W/m -10,2 C -7,8 C 0,0 km/h (0 Bft)
05/02/2012 04:40 -7,4 C 83 % 1026,9 hPa 0,0 mm 4,0 km/h (1 Bft) S-SE 157 0 min 0 W/m -9,8 C -7,4 C 4,0 km/h (1 Bft)
05/02/2012 04:50 -6,9 C 80 % 1026,7 hPa 0,0 mm 2,5 km/h (1 Bft) S 180 0 min 0 W/m -9,8 C -6,9 C 6,8 km/h (2 Bft)
05/02/2012 05:00 -6,6 C 79 % 1026,5 hPa 0,0 mm 0,0 km/h (0 Bft) S 180 0 min 0 W/m -9,6 C -6,6 C 4,3 km/h (1 Bft)
05/02/2012 05:10 -6,3 C 78 % 1026,3 hPa 0,0 mm 0,0 km/h (0 Bft) S 180 0 min 0 W/m -9,5 C -6,3 C 0,0 km/h (0 Bft)
05/02/2012 05:20 -6,1 C 77 % 1026,2 hPa 0,0 mm 2,9 km/h (1 Bft) S 180 0 min 0 W/m -9,5 C -6,1 C 7,6 km/h (2 Bft)
05/02/2012 05:30 -5,9 C 76 % 1025,9 hPa 0,0 mm 2,2 km/h (1 Bft) S 180 0 min 0 W/m -9,4 C -5,9 C 4,3 km/h (1 Bft)
05/02/2012 05:40 -5,8 C 75 % 1025,8 hPa 0,0 mm 5,8 km/h (2 Bft) E-SE 112 0 min 0 W/m -9,5 C -8,6 C 6,8 km/h (2 Bft)
05/02/2012 05:50 -5,8 C 76 % 1025,7 hPa 0,0 mm 4,7 km/h (1 Bft) S-SO 202 0 min 0 W/m -9,3 C -8,0 C 7,9 km/h (2 Bft)
05/02/2012 06:00 -5,8 C 78 % 1025,5 hPa 0,0 mm 5,4 km/h (2 Bft) SO 225 0 min 0 W/m -9,0 C -8,4 C 10,4 km/h (2 Bft)
05/02/2012 06:10 -6,1 C 79 % 1025,3 hPa 0,0 mm 8,3 km/h (2 Bft) S 180 0 min 0 W/m -9,1 C -10,0 C 8,6 km/h (2 Bft)
05/02/2012 06:20 -6,2 C 81 % 1024,9 hPa 0,0 mm 4,7 km/h (1 Bft) S 180 0 min 0 W/m -8,9 C -8,4 C 6,5 km/h (2 Bft)
05/02/2012 06:30 -6,4 C 81 % 1024,7 hPa 0,0 mm 5,0 km/h (1 Bft) SE 135 0 min 0 W/m -9,1 C -8,8 C 7,6 km/h (2 Bft)
05/02/2012 06:40 -6,6 C 83 % 1024,3 hPa 0,0 mm 4,7 km/h (1 Bft) SE 135 0 min 0 W/m -9,0 C -8,9 C 11,9 km/h (2 Bft)
05/02/2012 06:50 -6,6 C 84 % 1024,0 hPa 0,0 mm 8,6 km/h (2 Bft) S-SE 157 0 min 0 W/m -8,8 C -10,7 C 11,9 km/h (2 Bft)
05/02/2012 07:00 -6,7 C 84 % 1023,6 hPa 0,0 mm 2,5 km/h (1 Bft) S-SE 157 0 min 0 W/m -8,9 C -6,7 C 6,8 km/h (2 Bft)
05/02/2012 07:10 -6,7 C 85 % 1023,3 hPa 0,0 mm 5,0 km/h (1 Bft) S 180 0 min 0 W/m -8,8 C -9,2 C 6,8 km/h (2 Bft)
05/02/2012 07:20 -6,8 C 85 % 1022,9 hPa 0,0 mm 4,3 km/h (1 Bft) S-SE 157 0 min 0 W/m -8,9 C -6,8 C 8,6 km/h (2 Bft)
05/02/2012 07:30 -6,9 C 85 % 1022,7 hPa 0,0 mm 7,6 km/h (2 Bft) S-SE 157 0 min 0 W/m -9,0 C -10,7 C 12,2 km/h (2 Bft)
05/02/2012 07:40 -6,9 C 85 % 1022,2 hPa 0,0 mm 7,6 km/h (2 Bft) S-SE 157 0 min 0 W/m -9,0 C -10,7 C 9,0 km/h (2 Bft)
05/02/2012 07:50 -6,9 C 85 % 1022,0 hPa 0,0 mm 1,1 km/h (1 Bft) S 180 0 min 0 W/m -9,0 C -6,9 C 4,3 km/h (1 Bft)
05/02/2012 08:00 -6,8 C 85 % 1021,9 hPa 0,0 mm 0,4 km/h (0 Bft) SE 135 0 min 0 W/m -8,9 C -6,8 C 0,4 km/h (0 Bft)
05/02/2012 08:10 -6,7 C 86 % 1021,7 hPa 0,0 mm 2,9 km/h (1 Bft) S-SE 157 0 min 0 W/m -8,6 C -6,7 C 4,3 km/h (1 Bft)
05/02/2012 08:20 -6,7 C 86 % 1021,4 hPa 0,0 mm 6,8 km/h (2 Bft) SE 135 0 min 0 W/m -8,6 C -10,1 C 9,4 km/h (2 Bft)
05/02/2012 08:30 -6,7 C 86 % 1021,3 hPa 0,0 mm 2,5 km/h (1 Bft) SE 135 2 min 0 W/m -8,6 C -6,7 C 6,1 km/h (2 Bft)
05/02/2012 08:40 -6,7 C 87 % 1021,3 hPa 0,0 mm 5,0 km/h (1 Bft) SE 135 2 min 0 W/m -8,5 C -9,2 C 7,9 km/h (2 Bft)
05/02/2012 08:50 -6,6 C 87 % 1021,2 hPa 0,0 mm 3,6 km/h (1 Bft) E-SE 112 2 min 0 W/m -8,4 C -6,6 C 7,2 km/h (2 Bft)
05/02/2012 09:10 -6,6 C 87 % 1021,3 hPa 0,0 mm 5,0 km/h (1 Bft) S-SE 157 2 min 0 W/m -8,4 C -9,1 C 7,6 km/h (2 Bft)
05/02/2012 09:20 -6,6 C 87 % 1021,2 hPa 0,0 mm 7,6 km/h (2 Bft) SE 135 2 min 0 W/m -8,4 C -10,3 C 10,8 km/h (2 Bft)
05/02/2012 09:30 -6,6 C 88 % 1021,2 hPa 0,0 mm 2,9 km/h (1 Bft) S-SO 202 2 min 0 W/m -8,2 C -6,6 C 8,3 km/h (2 Bft)
05/02/2012 09:40 -6,6 C 88 % 1021,3 hPa 0,0 mm 4,7 km/h (1 Bft) S 180 2 min 0 W/m -8,2 C -8,9 C 7,6 km/h (2 Bft)
05/02/2012 09:50 -6,6 C 88 % 1021,1 hPa 0,0 mm 0,4 km/h (0 Bft) E-SE 112 2 min 0 W/m -8,2 C -6,6 C 0,4 km/h (0 Bft)
05/02/2012 10:00 -6,6 C 88 % 1020,9 hPa 0,0 mm 6,1 km/h (2 Bft) S-SE 157 2 min 0 W/m -8,2 C -9,7 C 8,6 km/h (2 Bft)
05/02/2012 10:10 -6,6 C 88 % 1021,0 hPa 0,0 mm 5,8 km/h (2 Bft) SE 135 2 min 0 W/m -8,2 C -9,5 C 8,6 km/h (2 Bft)
05/02/2012 10:20 -6,6 C 88 % 1020,9 hPa 0,0 mm 5,8 km/h (2 Bft) SE 135 2 min 0 W/m -8,2 C -9,5 C 9,0 km/h (2 Bft)
05/02/2012 10:30 -6,5 C 88 % 1020,8 hPa 0,0 mm 9,4 km/h (2 Bft) SE 135 2 min 0 W/m -8,1 C -10,9 C 15,1 km/h (3 Bft)
05/02/2012 10:40 -6,5 C 88 % 1020,8 hPa 0,0 mm 9,4 km/h (2 Bft) SE 135 2 min 0 W/m -8,1 C -10,9 C 15,1 km/h (3 Bft)
05/02/2012 10:50 -6,5 C 87 % 1021,0 hPa 0,0 mm 5,4 km/h (2 Bft) S-SE 157 2 min 0 W/m -8,3 C -9,2 C 10,1 km/h (2 Bft)
05/02/2012 11:00 -6,4 C 87 % 1021,1 hPa 0,0 mm 5,4 km/h (2 Bft) S-SE 157 2 min 0 W/m -8,2 C -9,1 C 12,6 km/h (3 Bft)
05/02/2012 11:10 -6,3 C 87 % 1021,2 hPa 0,0 mm 6,1 km/h (2 Bft) S-SE 157 2 min 0 W/m -8,1 C -9,3 C 10,1 km/h (2 Bft)
05/02/2012 11:20 -6,2 C 87 % 1021,3 hPa 0,0 mm 9,0 km/h (2 Bft) SE 135 2 min 0 W/m -8,0 C -10,4 C 14,8 km/h (3 Bft)
05/02/2012 11:30 -6,2 C 87 % 1021,6 hPa 0,0 mm 2,9 km/h (1 Bft) S-SE 157 2 min 0 W/m -8,0 C -6,2 C 7,6 km/h (2 Bft)
05/02/2012 11:40 -6,0 C 87 % 1021,9 hPa 0,0 mm 4,0 km/h (1 Bft) E-SE 112 2 min 0 W/m -7,8 C -6,0 C 10,1 km/h (2 Bft)
05/02/2012 11:50 -5,8 C 87 % 1022,1 hPa 0,0 mm 0,0 km/h (0 Bft) E-SE 112 2 min 0 W/m -7,6 C -5,8 C 0,0 km/h (0 Bft)
05/02/2012 12:00 -5,7 C 87 % 1022,1 hPa 0,0 mm 1,1 km/h (1 Bft) S-SO 202 2 min 0 W/m -7,5 C -5,7 C 4,0 km/h (1 Bft)
05/02/2012 12:10 -5,5 C 87 % 1022,1 hPa 0,0 mm 1,1 km/h (1 Bft) SE 135 2 min 0 W/m -7,3 C -5,5 C 4,3 km/h (1 Bft)
05/02/2012 12:20 -5,4 C 87 % 1022,1 hPa 0,0 mm 1,4 km/h (1 Bft) S-SE 157 2 min 0 W/m -7,2 C -5,4 C 3,6 km/h (1 Bft)
05/02/2012 12:30 -5,2 C 87 % 1022,0 hPa 0,0 mm 3,2 km/h (1 Bft) SE 135 2 min 0 W/m -7,0 C -5,2 C 4,0 km/h (1 Bft)
05/02/2012 12:40 -5,1 C 88 % 1022,2 hPa 0,0 mm 0,0 km/h (0 Bft) E 90 2 min 0 W/m -6,8 C -5,1 C 0,0 km/h (0 Bft)
05/02/2012 12:50 -4,9 C 87 % 1022,2 hPa 0,0 mm 0,0 km/h (0 Bft) E 90 2 min 0 W/m -6,7 C -4,9 C 0,0 km/h (0 Bft)
05/02/2012 13:00 -4,9 C 87 % 1022,2 hPa 0,0 mm 0,0 km/h (0 Bft) E-SE 112 2 min 0 W/m -6,7 C -4,9 C 0,0 km/h (0 Bft)
05/02/2012 13:10 -4,9 C 87 % 1022,3 hPa 0,0 mm 1,8 km/h (1 Bft) E 90 2 min 0 W/m -6,7 C -4,9 C 1,8 km/h (1 Bft)
05/02/2012 13:20 -4,8 C 87 % 1022,6 hPa 0,0 mm 0,0 km/h (0 Bft) E 90 2 min 0 W/m -6,6 C -4,8 C 0,0 km/h (0 Bft)
05/02/2012 13:30 -4,8 C 86 % 1022,6 hPa 0,0 mm 2,2 km/h (1 Bft) E 90 2 min 0 W/m -6,8 C -4,8 C 3,6 km/h (1 Bft)
05/02/2012 13:40 -4,9 C 86 % 1022,6 hPa 0,0 mm 0,0 km/h (0 Bft) E 90 2 min 0 W/m -6,9 C -4,9 C 0,0 km/h (0 Bft)
05/02/2012 13:50 -4,9 C 86 % 1022,6 hPa 0,0 mm 0,4 km/h (0 Bft) E-NE 67 2 min 0 W/m -6,9 C -4,9 C 4,3 km/h (1 Bft)
05/02/2012 14:00 -4,9 C 86 % 1022,7 hPa 0,0 mm 5,4 km/h (2 Bft) E 90 2 min 0 W/m -6,9 C -7,4 C 10,1 km/h (2 Bft)
05/02/2012 14:10 -5,1 C 86 % 1022,8 hPa 0,0 mm 1,8 km/h (1 Bft) E-NE 67 2 min 0 W/m -7,1 C -5,1 C 6,1 km/h (2 Bft)
05/02/2012 14:20 -5,0 C 86 % 1022,8 hPa 0,0 mm 3,6 km/h (1 Bft) E-SE 112 2 min 0 W/m -7,0 C -5,0 C 4,0 km/h (1 Bft)
05/02/2012 14:30 -5,0 C 86 % 1022,8 hPa 0,0 mm 2,5 km/h (1 Bft) E 90 2 min 0 W/m -7,0 C -5,0 C 6,1 km/h (2 Bft)
05/02/2012 14:40 -4,9 C 87 % 1023,0 hPa 0,0 mm 0,4 km/h (0 Bft) E 90 2 min 0 W/m -6,7 C -4,9 C 0,4 km/h (0 Bft)
05/02/2012 14:50 -4,8 C 87 % 1023,0 hPa 0,0 mm 0,0 km/h (0 Bft) E 90 2 min 0 W/m -6,6 C -4,8 C 0,0 km/h (0 Bft)
05/02/2012 15:00 -4,7 C 87 % 1023,1 hPa 0,0 mm 0,4 km/h (0 Bft) E-SE 112 2 min 0 W/m -6,5 C -4,7 C 0,4 km/h (0 Bft)
05/02/2012 15:10 -4,6 C 87 % 1023,2 hPa 0,0 mm 3,6 km/h (1 Bft) NE 45 2 min 0 W/m -6,4 C -4,6 C 4,3 km/h (1 Bft)
05/02/2012 15:20 -4,4 C 87 % 1023,3 hPa 0,0 mm 1,8 km/h (1 Bft) E-NE 67 2 min 0 W/m -6,2 C -4,4 C 4,3 km/h (1 Bft)
05/02/2012 15:30 -4,4 C 86 % 1023,3 hPa 0,0 mm 0,4 km/h (0 Bft) NE 45 2 min 0 W/m -6,4 C -4,4 C 3,6 km/h (1 Bft)
05/02/2012 15:40 -4,4 C 86 % 1023,4 hPa 0,0 mm 0,0 km/h (0 Bft) NE 45 2 min 0 W/m -6,4 C -4,4 C 0,0 km/h (0 Bft)
05/02/2012 15:50 -4,2 C 86 % 1023,6 hPa 0,0 mm 2,2 km/h (1 Bft) N-NE 22 2 min 0 W/m -6,2 C -4,2 C 4,3 km/h (1 Bft)
05/02/2012 16:00 -4,3 C 86 % 1023,7 hPa 0,0 mm 0,0 km/h (0 Bft) N-NE 22 2 min 0 W/m -6,3 C -4,3 C 0,0 km/h (0 Bft)
05/02/2012 16:10 -4,2 C 86 % 1023,8 hPa 0,0 mm 4,0 km/h (1 Bft) N-NE 22 2 min 0 W/m -6,2 C -4,2 C 7,6 km/h (2 Bft)
05/02/2012 16:20 -4,2 C 86 % 1024,0 hPa 0,0 mm 0,4 km/h (0 Bft) NE 45 2 min 0 W/m -6,2 C -4,2 C 0,4 km/h (0 Bft)
05/02/2012 16:30 -4,2 C 86 % 1024,1 hPa 0,0 mm 2,5 km/h (1 Bft) NE 45 2 min 0 W/m -6,2 C -4,2 C 4,3 km/h (1 Bft)
05/02/2012 16:40 -4,2 C 87 % 1024,0 hPa 0,0 mm 5,0 km/h (1 Bft) NE 45 2 min 0 W/m -6,0 C -6,4 C 8,6 km/h (2 Bft)
05/02/2012 16:50 -4,2 C 87 % 1024,3 hPa 0,0 mm 5,4 km/h (2 Bft) NE 45 2 min 0 W/m -6,0 C -6,6 C 5,4 km/h (2 Bft)
05/02/2012 17:00 -4,2 C 86 % 1024,3 hPa 0,0 mm 0,7 km/h (0 Bft) NE 45 2 min 0 W/m -6,2 C -4,2 C 1,4 km/h (1 Bft)
05/02/2012 17:10 -4,2 C 87 % 1024,5 hPa 0,0 mm 1,8 km/h (1 Bft) NE 45 2 min 0 W/m -6,0 C -4,2 C 6,5 km/h (2 Bft)
05/02/2012 17:20 -4,2 C 87 % 1024,9 hPa 0,0 mm 3,2 km/h (1 Bft) NE 45 2 min 0 W/m -6,0 C -4,2 C 3,6 km/h (1 Bft)
05/02/2012 17:30 -4,2 C 87 % 1024,9 hPa 0,0 mm 3,6 km/h (1 Bft) NE 45 2 min 0 W/m -6,0 C -4,2 C 4,3 km/h (1 Bft)
05/02/2012 17:40 -4,3 C 87 % 1025,1 hPa 0,0 mm 3,2 km/h (1 Bft) N-NE 22 2 min 0 W/m -6,1 C -4,3 C 6,5 km/h (2 Bft)
05/02/2012 17:50 -4,4 C 88 % 1025,3 hPa 0,0 mm 2,9 km/h (1 Bft) N-NE 22 2 min 0 W/m -6,1 C -4,4 C 4,3 km/h (1 Bft)
05/02/2012 18:00 -4,4 C 88 % 1025,5 hPa 0,0 mm 2,9 km/h (1 Bft) N-NE 22 0 min 0 W/m -6,1 C -4,4 C 4,0 km/h (1 Bft)
05/02/2012 18:10 -4,4 C 88 % 1025,5 hPa 0,0 mm 2,9 km/h (1 Bft) NE 45 0 min 0 W/m -6,1 C -4,4 C 4,3 km/h (1 Bft)
05/02/2012 18:20 -4,4 C 88 % 1025,7 hPa 0,0 mm 3,2 km/h (1 Bft) NE 45 0 min 0 W/m -6,1 C -4,4 C 6,1 km/h (2 Bft)
05/02/2012 18:30 -4,4 C 88 % 1025,9 hPa 0,0 mm 3,6 km/h (1 Bft) NE 45 0 min 0 W/m -6,1 C -4,4 C 6,5 km/h (2 Bft)
05/02/2012 18:40 -4,4 C 88 % 1025,9 hPa 0,0 mm 3,2 km/h (1 Bft) NE 45 0 min 0 W/m -6,1 C -4,4 C 4,3 km/h (1 Bft)
05/02/2012 18:50 -4,4 C 88 % 1026,0 hPa 0,0 mm 4,0 km/h (1 Bft) N-NE 22 0 min 0 W/m -6,1 C -4,4 C 7,6 km/h (2 Bft)
05/02/2012 19:00 -4,4 C 88 % 1026,3 hPa 0,0 mm 6,8 km/h (2 Bft) N 360 0 min 0 W/m -6,1 C -7,4 C 10,1 km/h (2 Bft)
05/02/2012 19:10 -4,4 C 87 % 1026,5 hPa 0,0 mm 6,1 km/h (2 Bft) N 360 0 min 0 W/m -6,2 C -7,1 C 8,6 km/h (2 Bft)
05/02/2012 19:20 -4,4 C 87 % 1026,5 hPa 0,0 mm 0,7 km/h (0 Bft) E-NE 67 0 min 0 W/m -6,2 C -4,4 C 3,6 km/h (1 Bft)
05/02/2012 19:30 -4,4 C 86 % 1026,6 hPa 0,0 mm 2,2 km/h (1 Bft) N-NE 22 0 min 0 W/m -6,4 C -4,4 C 4,3 km/h (1 Bft)
05/02/2012 19:40 -4,5 C 86 % 1026,7 hPa 0,0 mm 3,2 km/h (1 Bft) N-NE 22 0 min 0 W/m -6,5 C -4,5 C 6,1 km/h (2 Bft)
05/02/2012 19:50 -4,5 C 86 % 1026,8 hPa 0,0 mm 2,9 km/h (1 Bft) N-NE 22 0 min 0 W/m -6,5 C -4,5 C 4,3 km/h (1 Bft)
05/02/2012 20:00 -4,5 C 85 % 1026,9 hPa 0,0 mm 4,7 km/h (1 Bft) N-NE 22 0 min 0 W/m -6,6 C -6,5 C 4,7 km/h (1 Bft)
05/02/2012 20:10 -4,6 C 84 % 1027,0 hPa 0,0 mm 6,5 km/h (2 Bft) N-NE 22 0 min 0 W/m -6,9 C -7,5 C 9,0 km/h (2 Bft)
05/02/2012 20:20 -4,6 C 84 % 1027,2 hPa 0,0 mm 3,2 km/h (1 Bft) NE 45 0 min 0 W/m -6,9 C -4,6 C 6,5 km/h (2 Bft)
05/02/2012 20:30 -4,7 C 83 % 1027,2 hPa 0,0 mm 0,7 km/h (0 Bft) N-NE 22 0 min 0 W/m -7,1 C -4,7 C 0,7 km/h (0 Bft)
05/02/2012 20:40 -4,7 C 83 % 1027,3 hPa 0,0 mm 1,4 km/h (1 Bft) N-NE 22 0 min 0 W/m -7,1 C -4,7 C 3,6 km/h (1 Bft)
05/02/2012 20:50 -4,7 C 82 % 1027,4 hPa 0,0 mm 2,5 km/h (1 Bft) NE 45 0 min 0 W/m -7,3 C -4,7 C 6,1 km/h (2 Bft)
05/02/2012 21:00 -4,7 C 82 % 1027,6 hPa 0,0 mm 2,5 km/h (1 Bft) N 360 0 min 0 W/m -7,3 C -4,7 C 2,5 km/h (1 Bft)
05/02/2012 21:10 -4,7 C 82 % 1027,8 hPa 0,0 mm 1,8 km/h (1 Bft) NE 45 0 min 0 W/m -7,3 C -4,7 C 4,0 km/h (1 Bft)
05/02/2012 21:20 -4,9 C 81 % 1027,8 hPa 0,0 mm 0,4 km/h (0 Bft) NE 45 0 min 0 W/m -7,6 C -4,9 C 0,4 km/h (0 Bft)
05/02/2012 21:30 -5,2 C 80 % 1027,9 hPa 0,0 mm 2,2 km/h (1 Bft) NE 45 0 min 0 W/m -8,1 C -5,2 C 6,1 km/h (2 Bft)
05/02/2012 21:40 -5,5 C 80 % 1028,1 hPa 0,0 mm 0,4 km/h (0 Bft) N-NE 22 0 min 0 W/m -8,4 C -5,5 C 3,2 km/h (1 Bft)
05/02/2012 21:50 -5,8 C 80 % 1028,3 hPa 0,0 mm 2,9 km/h (1 Bft) N-NE 22 0 min 0 W/m -8,7 C -5,8 C 4,3 km/h (1 Bft)
05/02/2012 22:00 -6,1 C 79 % 1028,6 hPa 0,0 mm 0,0 km/h (0 Bft) NE 45 0 min 0 W/m -9,1 C -6,1 C 0,0 km/h (0 Bft)
05/02/2012 22:10 -6,4 C 79 % 1028,6 hPa 0,0 mm 1,8 km/h (1 Bft) N 360 0 min 0 W/m -9,4 C -6,4 C 7,2 km/h (2 Bft)
05/02/2012 22:20 -6,6 C 79 % 1028,7 hPa 0,0 mm 0,0 km/h (0 Bft) NE 45 0 min 0 W/m -9,6 C -6,6 C 0,0 km/h (0 Bft)
05/02/2012 22:30 -6,9 C 80 % 1028,8 hPa 0,0 mm 0,4 km/h (0 Bft) N-NE 22 0 min 0 W/m -9,8 C -6,9 C 3,2 km/h (1 Bft)
05/02/2012 22:40 -7,2 C 80 % 1028,8 hPa 0,0 mm 0,0 km/h (0 Bft) N-NE 22 0 min 0 W/m -10,0 C -7,2 C 0,0 km/h (0 Bft)
05/02/2012 22:50 -7,5 C 80 % 1028,9 hPa 0,0 mm 0,0 km/h (0 Bft) N-NE 22 0 min 0 W/m -10,3 C -7,5 C 0,0 km/h (0 Bft)
05/02/2012 23:00 -7,7 C 80 % 1028,8 hPa 0,0 mm 0,0 km/h (0 Bft) N-NE 22 0 min 0 W/m -10,5 C -7,7 C 0,0 km/h (0 Bft)
05/02/2012 23:10 -8,1 C 80 % 1028,9 hPa 0,0 mm 0,0 km/h (0 Bft) NE 45 0 min 0 W/m -10,9 C -8,1 C 0,0 km/h (0 Bft)
05/02/2012 23:20 -8,4 C 80 % 1028,8 hPa 0,0 mm 0,0 km/h (0 Bft) N-NE 22 0 min 0 W/m -11,2 C -8,4 C 0,0 km/h (0 Bft)
05/02/2012 23:30 -8,7 C 81 % 1028,7 hPa 0,0 mm 0,0 km/h (0 Bft) N-NE 22 0 min 0 W/m -11,4 C -8,7 C 0,0 km/h (0 Bft)
05/02/2012 23:40 -9,1 C 81 % 1028,8 hPa 0,0 mm 0,0 km/h (0 Bft) N-NE 22 0 min 0 W/m -11,7 C -9,1 C 0,0 km/h (0 Bft)
05/02/2012 23:50 -9,4 C 81 % 1028,7 hPa 0,0 mm 0,0 km/h (0 Bft) N-NE 22 0 min 0 W/m -12,0 C -9,4 C 0,0 km/h (0 Bft)
_ Min-Heure 01:20 05:40 10:40 - 23:50 - - - - 01:00 01:20 23:50
Minimum _ -11,1 C 75 % 1020,8 hPa - 0,0 km/h (0 Bft) - - - - -13,8 C -11,1 C 0,0 km/h (0 Bft)
_ Max-Heure 17:30 19:00 00:10 23:50 10:40 - - 17:50 23:50 17:30 17:30 10:40
Maximum _ -4,2 C 88 % 1031,4 hPa 0,0 mm 9,4 km/h
SE (2 Bft)
- - 2 min 0 W/m -6,0 C -4,2 C 15,1 km/h
SE (3 Bft)
Moyenne _ -6,5 C 84 % 1025,4 hPa #0,0 mm 2,4 km/h (1 Bft) N-NE - #1:52 h 0 W/m -8,7 C -7,1 C 4,2 km/h (1 Bft)
Saint Bonnet de Bellac- Haute Vienne - France